Tiempo atmosférico en la estación meteorológica de Chinchilla, Albacete (880 m.)



Fecha
DESCASC
Temp. máxima en grados centígrados (hora)
DESCASC
Temp. mínima en grados centígrados (hora)
DESCASC
Temp. media en grados centígrados
DESCASC
Racha de viento máxima en m/sg (hora)
DESCASC
Velocidad máxima media en intervalos de 10 minutos(hora)
DESCASC
Precipitaciones diarias en mm
DESCASC
Precipitaciones de 00:00 a 06:00 en mm
DESCASC
Precipitaciones de 06:00 a 12:00 en mm
DESCASC
Precipitaciones de 12:00 a 18:00 en mm
DESCASC
Precipitaciones de 18:00 a 24:00 en mm
DESCASC
15-08-2019 34.3 (16:30) 16.6 (07:20) 25.4 8.89 (19:30) 5.83 (20:00) 0 0 0 0 0
14-08-2019 30.8 (18:00) 14.4 (00:00) 22.6 9.72 (14:50) 4.72 (19:30) 0 0 0 0 0
13-08-2019 29.5 (16:20) 15.6 (00:00) 22.6 12.22 (13:10) 7.5 (18:50) 0 0 0 0 0
12-08-2019 29.3 (17:30) 14.5 (00:00) 21.9 9.44 (21:20) 6.39 (21:30) 0 0 0 0 0
11-08-2019 30.4 (17:20) 18.9 (00:00) 24.6 16.11 (19:30) 8.33 (12:20) 0 0 0 0 0
10-08-2019 35.1 (19:10) 17.5 (00:00) 26.3 8.33 (20:20) 5.83 (20:20) 0 0 0 0 0
09-08-2019 33.9 (18:40) 19.4 (00:00) 26.7 11.94 (17:00) 6.39 (17:00) 0 0 0 0 0
08-08-2019 34.9 (17:20) 17.7 (00:00) 26.3 9.44 (00:50) 5.83 (00:50) 0 0 0 0 0
07-08-2019 32.1 (16:00) 20.9 (00:00) 26.5 10.28 (12:30) 6.11 (05:10) 0 0 0 0 0
06-08-2019 36.9 (17:30) 18 (00:00) 27.5 12.22 (18:50) 6.67 (18:50) 0 0 0 0 0
05-08-2019 37 (16:50) 18.3 (00:00) 27.6 9.44 (19:00) 6.11 (19:40) 0 0 0 0 0
04-08-2019 36.2 (17:10) 16.9 (00:00) 26.6 8.89 (20:40) 5.83 (09:50) 0 0 0 0 0
03-08-2019 34.3 (16:00) 16.5 (00:00) 25.4 11.11 (21:00) 6.11 (01:50) 0 0 0 0 0
02-08-2019 35.1 (17:30) 15.9 (00:00) 25.5 9.72 (19:20) 5.83 (17:50) 0 0 0 0 0
01-08-2019 33.4 (17:50) 14 (00:00) 23.7 8.89 (02:50) 6.67 (02:50) 0 0 0 0 0
31-07-2019 29 (15:20) 15.4 (00:00) 22.2 12.5 (11:50) 8.61 (08:50) 0 0 0 0 0
30-07-2019 34.4 (17:30) 16.3 (00:00) 25.4 13.61 (18:00) 8.61 (18:00) 0 0 0 0 0
29-07-2019 32.3 (17:10) 16.2 (00:00) 24.3 8.61 (19:20) 4.17 (20:50) 0 0 0 0 0
28-07-2019 29.1 (17:40) 13.5 (00:00) 21.3 8.06 (14:00) 5 (01:40) 0 0 0 0 0
27-07-2019 25.9 (18:00) 15.4 (00:00) 20.6 18.89 (18:20) 9.44 (13:50) 0 0 0 0 0
26-07-2019 31.4 (17:00) 18.5 (00:00) 24.9 12.22 (20:10) 6.67 (20:20) 0 0 0 0 0
25-07-2019 34 (15:50) 17.5 (00:00) 25.8 11.39 (16:40) 7.5 (17:50) 0 0 0 0 0
24-07-2019 34.3 (16:10) 18.5 (00:00) 26.4 12.22 (18:40) 8.61 (19:00) 0 0 0 0 0
23-07-2019 34.5 (16:40) 16 (00:00) 25.3 14.17 (15:10) 9.17 (19:00) 0 0 0 0 0
22-07-2019 33.5 (16:40) 16.6 (00:00) 25.1 14.17 (19:40) 10.28 (18:40) 0 0 0 0 0
21-07-2019 33.6 (17:30) 16.7 (00:00) 25.1 11.11 (12:50) 7.22 (20:40) 0 0 0 0 0
20-07-2019 35.6 (15:20) 16 (00:00) 25.8 10.56 (20:10) 7.78 (20:20) 0 0 0 0 0
19-07-2019 32.8 (16:50) 16 (00:00) 24.4 13.89 (22:30) 7.5 (19:30) 0 0 0 0 0

Gráficas

Temp. máximas Temp. mínimas Temp. medias Precipitaciones Rachas de viento máximas Velocidades máximas media en intervalos de 10 minutos

Datos horarios

Fecha y hora oficial Temperatura (ºC) Velocidad del viento (km/h) Dirección del viento Racha (km/h) Dirección de racha Precipitación (mm) Presión (hPa) Tendencia (hPa) Humedad (%)
2019-08-17 23:00:00 24.3 15 Sudeste 21 Sur 0 915.7 1.2 46
2019-08-17 22:00:00 25.7 6 Sur 22 Sur 0 915.3 0.5 42
2019-08-17 21:00:00 27.7 13 Sur 37 Sudoeste 0 914.8 -0.2 36
2019-08-17 20:00:00 30.2 24 Sur 33 Sur 0 914.5 -1.2 27
2019-08-17 19:00:00 33.3 14 Sur 28 Sur 0 914.8 -1 22
2019-08-17 18:00:00 34.9 12 Sur 27 Sur 0 915 -1.7 21
2019-08-17 17:00:00 34.9 8 Sudoeste 24 Sudoeste 0 915.7 -1.3 21
2019-08-17 16:00:00 36 13 Sur 32 Sur 0 915.8 -1.7 21
2019-08-17 15:00:00 34.5 8 Oeste 27 Sudoeste 0 916.7 -1.2 22
2019-08-17 14:00:00 35.2 7 Sudoeste 20 Sudoeste 0 917 -0.9 22
2019-08-17 13:00:00 32.9 6 Oeste 15 Oeste 0 917.5 -0.6 24
2019-08-17 12:00:00 30.2 5 Oeste 17 Noroeste 0 917.9 -0.2 29
2019-08-17 11:00:00 27.8 8 Noroeste 15 Oeste 0 917.9 0 34
2019-08-17 10:00:00 24.2 2 Sur 7 Sur 0 918.1 0.4 53
2019-08-17 09:00:00 19.1 0 Calma 6 Sudeste 0 918.1 0.5 78
2019-08-17 08:00:00 17.3 4 Sudeste 9 Este 0 917.9 0.4 82
2019-08-17 07:00:00 17.2 5 Sudeste 8 Sudeste 0 917.7 0.4 81
2019-08-17 06:00:00 17.3 7 Sudeste 12 Este 0 917.6 -0.2 79
2019-08-17 05:00:00 17.7 9 Sudeste 17 Sudeste 0 917.5 -0.5 77
2019-08-17 04:00:00 18.4 11 Sudeste 17 Sudeste 0 917.3 -1.1 75
2019-08-17 03:00:00 18.8 13 Sudeste 19 Sudeste 0 917.8 -0.6 72
2019-08-17 02:00:00 19.5 10 Sudeste 20 Sudeste 0 918 -0.3 69
2019-08-17 01:00:00 20.7 15 Sur 22 Sudeste 0 918.4 0.5 66
2019-08-17 00:00:00 21.3 11 Sudeste 18 Sudeste 0 918.4 1.3 62
2019-08-16 23:00:00 22.4 13 Sudeste 26 Sur 0 918.3 1.7 56
2019-08-16 22:00:00 23.8 9 Sur 19 Sudoeste 0 917.9 1.6 46
2019-08-16 21:00:00 26 11 Sur 32 Sudoeste 0 917.1 0.5 37
2019-08-16 20:00:00 29 18 Sur 30 Sur 0 916.6 -0.5 30
2019-08-16 19:00:00 31.8 15 Sur 28 Sudoeste 0 916.3 -1.3 25
2019-08-16 18:00:00 33.4 15 Sudoeste 26 Sur 0 916.6 -1.4 22
2019-08-16 17:00:00 34.1 13 Sur 30 Sudoeste 0 917.1 -1.4 22
2019-08-16 16:00:00 33.7 11 Sur 25 Sur 0 917.6 -1.4 22
2019-08-16 15:00:00 32.6 9 Sudeste 28 Sur 0 918 -1.5 23
2019-08-16 14:00:00 31 15 Sur 26 Sur 0 918.5 -1.3 25
2019-08-16 13:00:00 29 16 Sur 27 Sur 0 919 -0.9 28
2019-08-16 12:00:00 26.9 19 Sur 26 Sur 0 919.5 -0.2 30
2019-08-16 11:00:00 24.3 17 Sur 28 Sur 0 919.8 0.4 39
2019-08-16 10:00:00 21.4 15 Sudeste 24 Sudeste 0 919.9 1 53
2019-08-16 09:00:00 17.5 14 Sudeste 24 Este 0 919.7 1.2 79
2019-08-16 08:00:00 15.6 17 Este 26 Este 0 919.4 0.7 89
2019-08-16 07:00:00 15.5 17 Este 24 Este 0 918.9 0.3 88
2019-08-16 06:00:00 15.9 18 Este 25 Este 0 918.5 0 85
2019-08-16 05:00:00 16.4 19 Este 28 Este 0 918.7 -0.5 83
2019-08-16 04:00:00 17.2 22 Este 29 Sudeste 0 918.6 -0.6 79
2019-08-16 03:00:00 17.6 22 Este 31 Sudeste 0 918.5 -0.8 69
2019-08-16 02:00:00 18 18 Este 25 Este 0 919.2 0 62
2019-08-16 01:00:00 19 20 Este 25 Este 0 919.2 0.3 58
2019-08-16 00:00:00 19.9 18 Sudeste 24 Sudeste 0 919.3 1 56
2019-08-15 23:00:00 21.5 12 Sudeste 24 Sur 0 919.2 1.9 53
2019-08-15 22:00:00 23 17 Sur 31 Sur 0 918.9 2.1 49
2019-08-15 21:00:00 25.1 19 Sur 32 Sudoeste 0 918.3 1.3 41
2019-08-15 20:00:00 28.1 21 Sur 32 Sur 0 917.3 -0.2 32
2019-08-15 19:00:00 32.6 4 Sudoeste 24 Sudoeste 0 916.8 -1 21
2019-08-15 18:00:00 33.7 8 Oeste 24 Noroeste 0 917 -1.3 21
2019-08-15 17:00:00 32 14 Noroeste 31 Norte 0 917.5 -0.9 20
2019-08-15 16:00:00 34 9 Oeste 31 Oeste 0 917.8 -1.3 19
2019-08-15 15:00:00 33.1 11 Oeste 23 Sudoeste 0 918.3 -1.4 21
2019-08-15 14:00:00 31.9 6 Oeste 20 Sudoeste 0 918.4 -1.3 24
2019-08-15 13:00:00 30.9 10 Sudoeste 22 Sudoeste 0 919.1 -0.9 24
2019-08-15 12:00:00 28 7 Sudoeste 16 Sudoeste 0 919.7 -0.1 34
2019-08-15 11:00:00 25.8 4 Sur 11 Sudeste 0 919.7 0 46
2019-08-15 10:00:00 22.9 6 Sur 11 Sur 0 920 0.9 62
2019-08-15 09:00:00 18.5 8 Sudeste 11 Sudeste 0 919.8 1 80
2019-08-15 08:00:00 16.9 7 Sudeste 14 Sudeste 0 919.7 0.9 84
2019-08-15 07:00:00 16.8 9 Sudeste 13 Sudeste 0 919.1 0.1 80
2019-08-15 06:00:00 17.4 9 Sudeste 14 Sudeste 0 918.8 -0.4 77
2019-08-15 05:00:00 17.6 9 Sudeste 15 Este 0 918.8 -0.7 77
2019-08-15 04:00:00 17.6 12 Sudeste 14 Sudeste 0 919 -0.7 76
2019-08-15 03:00:00 18.4 10 Sudeste 15 Sudeste 0 919.2 -0.4 71
2019-08-15 02:00:00 19 10 Sudeste 14 Sudeste 0 919.5 0 69
2019-08-15 01:00:00 19.6 8 Sudeste 18 Sudeste 0 919.7 0.7 65
2019-08-15 00:00:00 21.1 4 Sur 13 Sur 0 919.6 1.4 59
2019-08-14 23:00:00 22.3 4 Sur 14 Sur 0 919.5 1.9 53
2019-08-14 22:00:00 23.7 0 Calma 13 Sudeste 0 919 1.3 42
2019-08-14 21:00:00 26.2 5 Norte 24 Norte 0 918.2 0.4 20
2019-08-14 20:00:00 28.7 10 Norte 28 Norte 0 917.6 -0.5 19
2019-08-14 19:00:00 29.4 13 Norte 30 Noroeste 0 917.7 -0.9 19
2019-08-14 18:00:00 30.8 9 Norte 30 Noroeste 0 917.8 -1.3 20
2019-08-14 17:00:00 30.2 10 Norte 27 Norte 0 918.1 -1.7 21
2019-08-14 16:00:00 29 12 Norte 27 Noroeste 0 918.6 -1.4 21
2019-08-14 15:00:00 29 11 Noroeste 35 Noroeste 0 919.1 -1.3 22
2019-08-14 14:00:00 27.7 11 Noroeste 23 Noroeste 0 919.8 -1 27
2019-08-14 13:00:00 27.4 7 Sudoeste 17 Oeste 0 920 -0.7 34
2019-08-14 12:00:00 24.4 6 Sudoeste 16 Sudoeste 0 920.4 -0.1 44
2019-08-14 11:00:00 22.3 5 Sur 13 Sudeste 0 920.8 0.5 56
2019-08-14 10:00:00 19.8 7 Sur 15 Sur 0 920.7 0.6 72
2019-08-14 09:00:00 16.8 9 Sur 14 Sur 0 920.5 0.7 88
2019-08-14 08:00:00 15.5 10 Sudeste 16 Sudeste 0 920.3 0.7 92
2019-08-14 07:00:00 15.1 8 Sudeste 14 Sudeste 0 920.1 0.4 92
2019-08-14 06:00:00 14.9 9 Sudeste 16 Sudeste 0 919.8 -0.1 92
2019-08-14 05:00:00 14.6 11 Sudeste 17 Sudeste 0 919.6 -0.4 92
2019-08-14 04:00:00 14.7 13 Sudeste 18 Sudeste 0 919.7 -0.4 91
2019-08-14 03:00:00 15.1 12 Sudeste 17 Sudeste 0 919.9 -0.1 90
2019-08-14 02:00:00 15.7 13 Sudeste 18 Sudeste 0 920 0.2 87
2019-08-14 01:00:00 16.5 12 Sudeste 17 Sudeste 0 920.1 0.8 84
2019-08-14 00:00:00 17.5 9 Sur 16 Sur 0 920 1.5 80
2019-08-13 23:00:00 18.3 12 Sur 19 Sur 0 919.8 2 76
2019-08-13 22:00:00 19.4 14 Sur 26 Sudeste 0 919.3 1.8 66
2019-08-13 21:00:00 20.8 19 Sudeste 32 Sudeste 0 918.5 1.5 62
2019-08-13 20:00:00 22.4 22 Sudeste 34 Este 0 917.8 0.7 56
2019-08-13 19:00:00 25.3 24 Este 39 Este 0 917.5 -0.1 44
2019-08-13 18:00:00 26.7 3 Sudoeste 25 Sudoeste 0 917 -1.1 35
2019-08-13 17:00:00 27.3 8 Sudoeste 27 Oeste 0 917.1 -1.5 34
2019-08-13 16:00:00 28.7 6 Sudoeste 28 Sudoeste 0 917.6 -1.5 34
2019-08-13 15:00:00 28.5 12 Sudoeste 29 Sudoeste 0 918.1 -1.5 35
2019-08-13 14:00:00 25.7 13 Sur 44 Sur 0 918.6 -0.8 43
2019-08-13 13:00:00 23.7 12 Sur 30 Sur 0 919.1 -0.2 53
2019-08-13 12:00:00 22.6 17 Sur 33 Sur 0 919.6 0.1 54
2019-08-13 11:00:00 21 22 Sur 36 Sudeste 0 919.4 0.5 61
2019-08-13 10:00:00 20 25 Sudeste 35 Sudeste 0 919.3 1.2 66
2019-08-13 09:00:00 17.8 21 Sudeste 30 Sudeste 0 919.5 1.4 75
2019-08-13 08:00:00 16.4 19 Sudeste 29 Sudeste 0 918.9 0.5 84
2019-08-13 07:00:00 15.9 18 Sudeste 32 Sudeste 0 918.1 -0.4 83
2019-08-13 06:00:00 15.8 17 Sudeste 27 Sudeste 0 918.1 -0.8 83
2019-08-13 05:00:00 15.9 19 Sudeste 30 Sudeste 0 918.4 -0.6 79
2019-08-13 04:00:00 16.7 16 Sudeste 30 Sudeste 0 918.5 -0.6 82
2019-08-13 03:00:00 17 16 Sudeste 30 Sudeste 0 918.9 0.3 85
2019-08-13 02:00:00 17.2 20 Sudeste 30 Sudeste 0 919 0.8 86
2019-08-13 01:00:00 17.2 16 Sudeste 27 Sudeste 0 919.1 1.6 84
2019-08-13 00:00:00 17.7 18 Sudeste 28 Sudeste 0 918.6 2 79
2019-08-12 23:00:00 18.6 16 Sudeste 29 Sudeste 0 918.2 2.9 75
2019-08-12 22:00:00 20.2 19 Sudeste 34 Sudeste 0 917.5 2.4 66
2019-08-12 21:00:00 23.2 21 Sudeste 32 Sudeste 0 916.6 1.2 49
2019-08-12 20:00:00 27.2 7 Noroeste 17 Noroeste 0 915.3 -0.2 19
2019-08-12 19:00:00 28.8 9 Oeste 18 Sudoeste 0 915.1 -1 19
2019-08-12 18:00:00 28.4 12 Noroeste 22 Oeste 0 915.4 -1.3 19
2019-08-12 17:00:00 28.8 8 Noroeste 23 Oeste 0 915.5 -1.4 21
2019-08-12 16:00:00 28.9 9 Oeste 26 Noroeste 0 916.1 -1.2 23
2019-08-12 15:00:00 26.4 8 Noroeste 24 Noroeste 0 916.7 -1 26
2019-08-12 14:00:00 25 7 Noroeste 21 Norte 0 916.9 -0.3 29
2019-08-12 13:00:00 23.8 10 Norte 25 Norte 0 917.3 0.3 32
2019-08-12 12:00:00 22 13 Noroeste 28 Noroeste 0 917.7 1 36
2019-08-12 11:00:00 19.3 14 Noroeste 23 Norte 0 917.2 1.3 38
2019-08-12 10:00:00 16.4 14 Norte 24 Noroeste 0 917 1.4 40
2019-08-12 09:00:00 15.7 10 Norte 27 Noroeste 0 916.7 1.1 40
2019-08-12 08:00:00 15.3 14 Noroeste 26 Noroeste 0 915.9 0.4 40
2019-08-12 07:00:00 14.9 13 Noroeste 24 Noroeste 0 915.6 -0.3 39
2019-08-12 06:00:00 15.5 14 Noroeste 28 Noroeste 0 915.6 -0.6 37
2019-08-12 05:00:00 16 14 Noroeste 24 Noroeste 0 915.5 -1.2 36
2019-08-12 04:00:00 17.4 13 Noroeste 20 Noroeste 0 915.9 -1 34
2019-08-12 03:00:00 18.3 12 Norte 30 Norte 0 916.2 -0.9 33
2019-08-12 02:00:00 19 10 Noroeste 32 Noroeste 0 916.7 -0.2 29
2019-08-12 01:00:00 20.8 19 Noroeste 28 Noroeste 0 916.9 0.7 27
2019-08-12 00:00:00 21.3 13 Noroeste 31 Noroeste 0 917.1 1.9 27
2019-08-11 23:00:00 22.3 12 Noroeste 25 Noroeste 0 916.9 2.2 28
2019-08-11 22:00:00 23 12 Norte 18 Norte 0 916.2 2 27
2019-08-11 21:00:00 24.4 12 Norte 28 Norte 0 915.2 0.5 26
2019-08-11 20:00:00 26.1 18 Norte 58 Norte 0 914.7 -0.4 25
2019-08-11 19:00:00 28.7 19 Norte 37 Norte 0 914.2 -1.1 25
2019-08-11 18:00:00 29.9 16 Noroeste 41 Norte 0 914.7 -1 25
2019-08-11 17:00:00 29 19 Noroeste 37 Noroeste 0 915.1 -1 26
2019-08-11 16:00:00 29.4 19 Norte 36 Norte 0 915.3 -1.3 25
2019-08-11 15:00:00 28.5 19 Noroeste 42 Norte 0 915.7 -0.8 27
2019-08-11 14:00:00 28.3 17 Noroeste 36 Noroeste 0 916.1 -0.7 29
2019-08-11 13:00:00 26.6 17 Noroeste 48 Noroeste 0 916.6 -0.5 33
2019-08-11 12:00:00 24.4 22 Norte 36 Norte 0 916.5 -0.7 36
2019-08-11 11:00:00 23.1 13 Norte 23 Noroeste 0 916.8 -0.1 38
2019-08-11 10:00:00 22.1 11 Noroeste 22 Norte 0 917.1 1 43
2019-08-11 09:00:00 20.1 13 Norte 26 Norte 0 917.2 1.4 51
2019-08-11 08:00:00 19.4 12 Norte 17 Noroeste 0 916.9 1.1 62
2019-08-11 07:00:00 18.9 0 Calma -- -- 0 916.1 -0.1 66
2019-08-11 06:00:00 19.7 0 Calma 4 Sudeste 0 915.8 -0.8 63
2019-08-11 05:00:00 19.8 4 Este 13 Sudeste 0 915.8 -1.3 61
2019-08-11 04:00:00 20.2 7 Sudeste 13 Sudeste 0 916.2 -1.3 59
2019-08-11 03:00:00 21.1 9 Sudeste 15 Sur 0 916.6 -0.8 57
2019-08-11 02:00:00 21.2 9 Sudeste 14 Sudeste 0 917.1 -0.4 57
2019-08-11 01:00:00 22.4 9 Sudeste 14 Sudeste 0 917.5 0.5 53
2019-08-11 00:00:00 23.3 10 Sur 18 Sur 0 917.4 0.9 49
2019-08-10 23:00:00 24.5 13 Sudeste 24 Sudeste 0 917.5 1.3 46
2019-08-10 22:00:00 26 7 Sudeste 18 Sudoeste 0 917 0.9 43
2019-08-10 21:00:00 28.2 15 Sudoeste 30 Sudoeste 0 916.5 0 37
2019-08-10 20:00:00 31 19 Sur 27 Sur 0 916.2 -0.9 31
2019-08-10 19:00:00 34.4 4 Sur 15 Sudoeste 0 916.1 -1.8 25
2019-08-10 18:00:00 33.8 0 Calma 21 Oeste 0 916.5 -2 26
2019-08-10 17:00:00 33.4 6 Sudeste 15 Sur 0 917.1 -1.9 28
2019-08-10 16:00:00 32.9 7 Oeste 21 Sudoeste 0 917.9 -1.6 30
2019-08-10 15:00:00 31.2 5 Oeste 23 Noroeste 0 918.5 -1.3 33
2019-08-10 14:00:00 28.1 9 Norte 22 Norte 0 919 -1 41
2019-08-10 13:00:00 26.7 8 Noroeste 19 Noroeste 0 919.5 -0.4 46
2019-08-10 12:00:00 25.6 7 Noroeste 15 Norte 0 919.8 -0.1 51
2019-08-10 11:00:00 23.1 7 Norte 22 Norte 0 920 0.6 61
2019-08-10 10:00:00 21.6 11 Norte 23 Norte 0 919.9 1 67
2019-08-10 09:00:00 18.9 9 Norte 19 Norte 0 919.9 1.6 78
2019-08-10 08:00:00 17.7 12 Norte 23 Noroeste 0 919.4 1.5 84
2019-08-10 07:00:00 18.2 14 Norte 22 Noroeste 0 918.9 0.9 82
2019-08-10 06:00:00 18.6 11 Norte 18 Norte 0 918.3 0.3 79
2019-08-10 05:00:00 18.9 12 Norte 23 Norte 0 917.9 -0.4 74
2019-08-10 04:00:00 20.4 13 Norte 22 Noroeste 0 918 -0.3 63
2019-08-10 03:00:00 21.4 13 Norte 17 Norte 0 918 0.1 52
2019-08-10 02:00:00 22.3 10 Norte 18 Noroeste 0 918.3 0.7 48
2019-08-10 01:00:00 23.9 11 Noroeste 28 Noroeste 0 918.3 1.3 43
2019-08-10 00:00:00 25.5 14 Noroeste 21 Noroeste 0 917.9 1.6 40
2019-08-09 23:00:00 26.2 13 Noroeste 22 Noroeste 0 917.6 1.9 39
2019-08-09 22:00:00 27 11 Noroeste 25 Noroeste 0 917 1.4 36
2019-08-09 21:00:00 29.5 11 Noroeste 24 Oeste 0 916.3 0.6 31
2019-08-09 20:00:00 32.5 14 Oeste 32 Oeste 0 915.7 -0.4 27
2019-08-09 19:00:00 33.4 19 Oeste 35 Oeste 0 915.6 -1.1 26
2019-08-09 18:00:00 33.2 20 Noroeste 36 Oeste 0 915.7 -1.3 27
2019-08-09 17:00:00 32.7 23 Oeste 43 Noroeste 0 916.1 -1.4 29
2019-08-09 16:00:00 32.2 17 Noroeste 40 Noroeste 0 916.7 -1 30
2019-08-09 15:00:00 31 16 Noroeste 34 Noroeste 0 917 -0.5 31
2019-08-09 14:00:00 30 17 Noroeste 37 Oeste 0 917.5 0.2 33
2019-08-09 13:00:00 28.5 19 Noroeste 33 Noroeste 0 917.7 0.5 36
2019-08-09 12:00:00 27.3 18 Noroeste 33 Noroeste 0 917.5 0.4 39
2019-08-09 11:00:00 25.6 16 Noroeste 35 Noroeste 0 917.3 0.4 42
2019-08-09 10:00:00 23.7 17 Noroeste 29 Noroeste 0 917.2 0.5 43
2019-08-09 09:00:00 21.9 17 Noroeste 30 Noroeste 0 917.1 0.7 43
2019-08-09 08:00:00 20.8 18 Noroeste 28 Noroeste 0 916.9 0.4 43
2019-08-09 07:00:00 21.1 15 Noroeste 22 Noroeste 0 916.7 0.3 42
2019-08-09 06:00:00 21.3 13 Oeste 27 Oeste 0 916.4 0.1 40
2019-08-09 05:00:00 20.9 9 Noroeste 14 Noroeste 0 916.5 0.2 41
2019-08-09 04:00:00 20.4 0 Calma -- -- 0 916.4 0.2 43
2019-08-09 03:00:00 20 0 Calma 11 Sudeste 0 916.3 0.3 44
2019-08-09 02:00:00 21.2 0 Calma 9 Sudeste 0 916.3 0.4 42
2019-08-09 01:00:00 21.7 8 Sudeste 12 Sudeste 0 916.2 0.9 42
2019-08-09 00:00:00 23.1 5 Sudeste 12 Sur 0 916 1.4 39
2019-08-08 23:00:00 24.6 5 Sur 16 Sur 0 915.9 1.8 36
2019-08-08 22:00:00 26.8 4 Sudoeste 23 Sudoeste 0 915.3 1.2 34
2019-08-08 21:00:00 29.8 13 Sur 21 Sudoeste 0 914.6 0 27
2019-08-08 20:00:00 34 4 Oeste 23 Noroeste 0 914.1 -0.7 25
2019-08-08 19:00:00 34.2 6 Noroeste 21 Noroeste 0 914.1 -1.3 25
2019-08-08 18:00:00 33.4 13 Noroeste 26 Sudoeste 0 914.6 -1.2 25
2019-08-08 17:00:00 33.5 4 Noroeste 24 Sudoeste 0 914.8 -1.6 27
2019-08-08 16:00:00 33.3 11 Sudoeste 24 Sudoeste 0 915.4 -1.4 29
2019-08-08 15:00:00 31.4 10 Oeste 27 Noroeste 0 915.8 -1.2 32
2019-08-08 14:00:00 29.4 13 Oeste 27 Noroeste 0 916.4 -0.3 34
2019-08-08 13:00:00 28 9 Noroeste 23 Noroeste 0 916.8 0.1 38
2019-08-08 12:00:00 26.2 7 Noroeste 17 Norte 0 917 0.5 39
2019-08-08 11:00:00 23.5 9 Noroeste 18 Norte 0 916.7 0.5 46
2019-08-08 10:00:00 22 11 Norte 20 Norte 0 916.7 0.9 51
2019-08-08 09:00:00 20.2 13 Norte 19 Norte 0 916.5 0.6 54
2019-08-08 08:00:00 17.8 9 Norte 13 Norte 0 916.2 0.3 57
2019-08-08 07:00:00 17.8 11 Norte 15 Norte 0 915.8 -0.1 56
2019-08-08 06:00:00 17.8 12 Norte 23 Norte 0 915.9 -0.1 55
2019-08-08 05:00:00 18.7 13 Norte 19 Norte 0 915.9 -0.4 51
2019-08-08 04:00:00 19.1 5 Norte 16 Norte 0 915.9 -0.1 47
2019-08-08 03:00:00 19.7 10 Norte 15 Norte 0 916 0.4 44
2019-08-08 02:00:00 21.4 5 Noroeste 30 Noroeste 0 916.3 0.6 41
2019-08-08 01:00:00 22.4 21 Norte 34 Noroeste 0 916 0.6 40
2019-08-08 00:00:00 23.4 10 Norte 20 Norte 0 915.6 1.4 37
2019-08-07 23:00:00 24.2 14 Norte 24 Norte 0 915.7 1.6 36
2019-08-07 22:00:00 25.2 14 Noroeste 26 Noroeste 0 915.4 1.5 32
2019-08-07 21:00:00 26.5 12 Noroeste 33 Norte 0 914.2 -0.2 27
2019-08-07 20:00:00 27.7 18 Norte 32 Norte 0 914.1 0 26
2019-08-07 19:00:00 27.8 16 Norte 32 Noroeste 0 913.9 -0.5 26
2019-08-07 18:00:00 29.4 18 Norte 37 Noroeste 0 914.4 -0.6 25
2019-08-07 17:00:00 31.1 15 Oeste 31 Noroeste 0 914.1 -0.7 25
2019-08-07 16:00:00 32 12 Oeste 33 Oeste 0 914.4 -0.7 27
2019-08-07 15:00:00 29.2 15 Oeste 33 Oeste 0 915 -0.1 29
2019-08-07 14:00:00 29.4 14 Noroeste 30 Oeste 0 914.8 -0.1 32
2019-08-07 13:00:00 27.6 17 Oeste 37 Oeste 0 915.1 0.4 32
2019-08-07 12:00:00 26.3 17 Oeste 32 Oeste 0 915.1 0.9 37
2019-08-07 11:00:00 24.4 18 Noroeste 31 Noroeste 0 914.9 1.1 38
2019-08-07 10:00:00 22.8 18 Noroeste 30 Noroeste 0 914.7 1.2 37
2019-08-07 09:00:00 21.6 19 Noroeste 26 Oeste 0 914.2 1 37
2019-08-07 08:00:00 21 14 Noroeste 33 Noroeste 0 913.8 0.8 36
2019-08-07 07:00:00 21.2 19 Noroeste 31 Noroeste 0 913.5 0.5 34
2019-08-07 06:00:00 22 16 Noroeste 33 Noroeste 0 913.2 -0.2 31
2019-08-07 05:00:00 22.2 21 Noroeste 34 Noroeste 0 913 -0.9 28
2019-08-07 04:00:00 21.4 3 Noroeste 10 Noroeste 0 913 -0.5 30
2019-08-07 03:00:00 21.5 3 Sudoeste 16 Oeste 0 913.4 -0.4 41
2019-08-07 02:00:00 21.7 7 Noroeste 13 Noroeste 0 913.9 0.2 54
2019-08-07 01:00:00 23.5 6 Sudeste 9 Sudeste 0 913.5 0.4 46
2019-08-07 00:00:00 25.6 2 Sudoeste 10 Sudoeste 0 913.8 1.3 42
2019-08-06 23:00:00 27.3 9 Sudoeste 26 Oeste 0 913.7 1.5 27
2019-08-06 22:00:00 29.3 18 Oeste 32 Oeste 0 913.1 0.8 13
2019-08-06 21:00:00 30.7 13 Oeste 31 Oeste 0 912.5 0 13
2019-08-06 20:00:00 33.9 19 Noroeste 37 Oeste 0 912.2 -0.7 13
2019-08-06 19:00:00 33.5 21 Noroeste 44 Oeste 0 912.3 -1.5 13
2019-08-06 18:00:00 35.5 19 Noroeste 35 Oeste 0 912.5 -2 13
2019-08-06 17:00:00 36.4 8 Sudoeste 25 Sudoeste 0 912.9 -2.2 15
2019-08-06 16:00:00 35.4 10 Sudoeste 30 Sudoeste 0 913.8 -1.9 16
2019-08-06 15:00:00 34.2 12 Sudoeste 28 Sudoeste 0 914.5 -1.4 18
2019-08-06 14:00:00 32.1 10 Oeste 27 Noroeste 0 915.1 -0.8 20
2019-08-06 13:00:00 30.7 12 Noroeste 30 Noroeste 0 915.7 -0.2 21
2019-08-06 12:00:00 29.7 7 Oeste 19 Oeste 0 915.9 0.3 22
2019-08-06 11:00:00 27 9 Noroeste 20 Noroeste 0 915.9 0.4 27
2019-08-06 10:00:00 25.1 10 Oeste 20 Noroeste 0 915.9 0.6 30
2019-08-06 09:00:00 21.9 8 Noroeste 18 Oeste 0 915.6 0.3 38
2019-08-06 08:00:00 18.7 0 Calma 15 Noroeste 0 915.5 0.3 43
2019-08-06 07:00:00 18 4 Norte 10 Norte 0 915.3 0 48
2019-08-06 06:00:00 18.4 0 Calma 10 Oeste 0 915.3 0 54
2019-08-06 05:00:00 18.6 7 Noroeste 12 Oeste 0 915.2 -0.4 73
2019-08-06 04:00:00 18.8 8 Sudeste 11 Este 0 915.3 -0.3 85
2019-08-06 03:00:00 19.7 6 Sudeste 14 Sudeste 0 915.3 -0.2 82
2019-08-06 02:00:00 20.6 9 Sudeste 21 Sur 0 915.6 0.4 78
2019-08-06 01:00:00 21.6 9 Sur 28 Sudeste 0 915.6 1 72
2019-08-06 00:00:00 22.9 11 Sur 20 Sur 0 915.5 1.5 66
2019-08-05 23:00:00 24.3 13 Sur 22 Sur 0 915.2 1.8 60
2019-08-05 22:00:00 25.8 17 Sudeste 26 Sur 0 914.6 1.2 55
2019-08-05 21:00:00 27.3 18 Sur 30 Sur 0 914 0.6 48
2019-08-05 20:00:00 30.5 18 Sudoeste 34 Sur 0 913.4 -0.5 37
2019-08-05 19:00:00 33.1 20 Sur 34 Sudoeste 0 913.4 -1.1 27
2019-08-05 18:00:00 36 12 Sur 22 Sur 0 913.4 -1.8 21
2019-08-05 17:00:00 36.3 4 Sur 15 Sur 0 913.9 -2 20
2019-08-05 16:00:00 35.8 6 Oeste 21 Sudoeste 0 914.5 -1.9 21
2019-08-05 15:00:00 34.3 7 Oeste 19 Sudoeste 0 915.2 -1.5 22
2019-08-05 14:00:00 33.3 6 Sudoeste 19 Sudoeste 0 915.9 -0.7 21
2019-08-05 13:00:00 31.3 8 Oeste 14 Sudoeste 0 916.4 -0.3 25
2019-08-05 12:00:00 28.6 5 Norte 19 Noroeste 0 916.7 0.2 28
2019-08-05 11:00:00 26.5 9 Noroeste 22 Noroeste 0 916.6 0.3 31
2019-08-05 10:00:00 24.4 7 Noroeste 19 Noroeste 0 916.7 0.6 36
2019-08-05 09:00:00 21.8 10 Norte 22 Norte 0 916.5 0.5 44
2019-08-05 08:00:00 19.6 7 Norte 12 Noroeste 0 916.3 0.2 52
2019-08-05 07:00:00 18.4 5 Norte 6 Norte 0 916.1 -0.3 69
2019-08-05 06:00:00 18.5 4 Este 10 Sudeste 0 916 -0.8 76
2019-08-05 05:00:00 19.3 6 Sudeste 14 Este 0 916.1 -1 72
2019-08-05 04:00:00 19.4 10 Sudeste 18 Sudeste 0 916.4 -0.6 72
2019-08-05 03:00:00 20.1 9 Sudeste 19 Sudeste 0 916.8 0.2 67
2019-08-05 02:00:00 21 10 Sudeste 18 Sudeste 0 917.1 0.9 61
2019-08-05 01:00:00 22.2 10 Sudeste 21 Sudeste 0 917 1.5 53
2019-08-05 00:00:00 22.8 13 Sudeste 30 Sudeste 0 916.6 2 48
2019-08-04 23:00:00 24.2 15 Sudeste 21 Sudeste 0 916.2 2 49
2019-08-04 22:00:00 25.8 9 Sur 19 Sudoeste 0 915.5 1.6 43
2019-08-04 21:00:00 28.6 12 Sudoeste 32 Sudoeste 0 914.6 0.4 34
2019-08-04 20:00:00 32.3 14 Sudoeste 23 Sudoeste 0 914.2 -0.3 22
2019-08-04 19:00:00 34.5 4 Sur 17 Oeste 0 913.9 -1.1 18
2019-08-04 18:00:00 34.4 8 Noroeste 17 Sudoeste 0 914.2 -1.4 18
2019-08-04 17:00:00 36.1 7 Sudoeste 21 Sudoeste 0 914.5 -1.4 18
2019-08-04 16:00:00 34.8 6 Sudoeste 22 Sudoeste 0 915 -1.5 19
2019-08-04 15:00:00 33.8 8 Oeste 21 Sudoeste 0 915.6 -0.9 20
2019-08-04 14:00:00 32.2 6 Sudoeste 21 Oeste 0 915.9 -0.7 22
2019-08-04 13:00:00 29.1 8 Noroeste 20 Noroeste 0 916.5 0.3 25
2019-08-04 12:00:00 27.2 10 Noroeste 25 Noroeste 0 916.5 0.3 29
2019-08-04 11:00:00 25.7 11 Noroeste 29 Noroeste 0 916.6 0.2 31
2019-08-04 10:00:00 23.4 20 Norte 31 Norte 0 916.2 0.2 35
2019-08-04 09:00:00 21.6 17 Norte 28 Norte 0 916.2 0.4 40
2019-08-04 08:00:00 17.7 4 Norte 9 Norte 0 916.4 0.7 57
2019-08-04 07:00:00 17.1 0 Calma -- -- 0 916 0.1 66
2019-08-04 06:00:00 17.7 0 Calma 13 Sudeste 0 915.8 -0.3 76
2019-08-04 05:00:00 17.3 11 Este 14 Este 0 915.7 -0.5 71
2019-08-04 04:00:00 17.6 11 Sudeste 16 Sudeste 0 915.9 -0.4 69
2019-08-04 03:00:00 18.5 10 Sudeste 19 Sudeste 0 916.1 0 66
2019-08-04 02:00:00 19 13 Sudeste 20 Sudeste 0 916.2 0.5 64
2019-08-04 01:00:00 20 13 Sudeste 20 Sur 0 916.3 1.3 63
2019-08-04 00:00:00 21.3 8 Sur 21 Sur 0 916.1 1.8 58
2019-08-03 23:00:00 22.7 12 Sur 17 Sur 0 915.7 1.8 49
2019-08-03 22:00:00 24.3 7 Sur 27 Sur 0 915 1 41
2019-08-03 21:00:00 27.2 15 Sur 40 Sur 0 914.3 0.1 33
2019-08-03 20:00:00 29.9 19 Sur 31 Sur 0 913.9 -1 28
2019-08-03 19:00:00 32.4 13 Sur 28 Sur 0 914 -1.2 25
2019-08-03 18:00:00 32.8 15 Sur 28 Sur 0 914.2 -1.5 25
2019-08-03 17:00:00 33.5 12 Sur 31 Sur 0 914.9 -1.3 25
2019-08-03 16:00:00 33.8 12 Sudeste 26 Sudeste 0 915.2 -1.5 24
2019-08-03 15:00:00 33.4 7 Sur 21 Sudeste 0 915.7 -1.2 25
2019-08-03 14:00:00 31.9 8 Sur 18 Sur 0 916.2 -0.7 26
2019-08-03 13:00:00 29.6 9 Sur 27 Sur 0 916.7 -0.5 32
2019-08-03 12:00:00 27.7 15 Sur 26 Sur 0 916.9 -0.2 39
2019-08-03 11:00:00 25.6 15 Sur 24 Sur 0 916.9 0.2 46
2019-08-03 10:00:00 22.6 15 Sur 22 Sur 0 917.2 0.8 60
2019-08-03 09:00:00 19.1 12 Sudeste 22 Sudeste 0 917.1 1 85
2019-08-03 08:00:00 18 13 Sudeste 22 Sudeste 0 916.7 0.5 89
2019-08-03 07:00:00 17.5 13 Sudeste 22 Sur 0 916.4 0.1 92
2019-08-03 06:00:00 16.7 15 Este 24 Este 0 916.1 -0.7 92
2019-08-03 05:00:00 16.7 17 Este 24 Este 0 916.2 -0.7 90
2019-08-03 04:00:00 16.9 17 Este 22 Sudeste 0 916.3 -0.5 84
2019-08-03 03:00:00 17.6 15 Sudeste 28 Sudeste 0 916.8 0.1 79
2019-08-03 02:00:00 18.9 21 Sudeste 27 Sudeste 0 916.9 0.6 73
2019-08-03 01:00:00 20.6 19 Sudeste 24 Sudeste 0 916.8 1.1 65
2019-08-03 00:00:00 22.1 15 Sudeste 22 Sudeste 0 916.7 1.5 60
2019-08-02 23:00:00 23.8 15 Sudeste 21 Sudeste 0 916.3 1.4 57
2019-08-02 22:00:00 25.2 15 Sudeste 22 Sudeste 0 915.7 1.3 50
2019-08-02 21:00:00 26.6 16 Sur 28 Sur 0 915.2 0.4 46
2019-08-02 20:00:00 28.7 18 Sur 35 Sur 0 914.9 -0.1 41
2019-08-02 19:00:00 31.2 18 Sur 34 Sur 0 914.4 -1.1 34
2019-08-02 18:00:00 33 21 Sur 34 Sur 0 914.8 -1 29
2019-08-02 17:00:00 34.7 5 Sudoeste 18 Oeste 0 915 -1.2 19
2019-08-02 16:00:00 34.3 9 Oeste 26 Oeste 0 915.5 -0.9 21
2019-08-02 15:00:00 33.1 6 Oeste 25 Oeste 0 915.8 -0.8 22
2019-08-02 14:00:00 30.6 7 Norte 17 Norte 0 916.2 -0.3 24
2019-08-02 13:00:00 29.7 5 Norte 17 Nordeste 0 916.4 0.3 27
2019-08-02 12:00:00 27.4 8 Norte 19 Norte 0 916.6 0.5 33
2019-08-02 11:00:00 25.2 9 Norte 25 Noroeste 0 916.5 0.7 36
2019-08-02 10:00:00 23.1 15 Norte 27 Norte 0 916.1 0.5 42
2019-08-02 09:00:00 20.9 11 Norte 16 Norte 0 916.1 0.6 53
2019-08-02 08:00:00 17.9 8 Norte 12 Norte 0 915.8 0.4 54
2019-08-02 07:00:00 16.5 0 Calma 8 Norte 0 915.6 0.7 57
2019-08-02 06:00:00 17.2 4 Este 10 Sudeste 0 915.5 0.1 88
2019-08-02 05:00:00 17.7 6 Sudeste 9 Este 0 915.4 -0.2 85
2019-08-02 04:00:00 18.1 6 Sudeste 13 Sudeste 0 914.9 -0.9 83
2019-08-02 03:00:00 19 8 Sudeste 12 Este 0 915.4 0 78
2019-08-02 02:00:00 19.6 7 Sudeste 15 Sudeste 0 915.6 0.5 74
2019-08-02 01:00:00 20.3 12 Sudeste 19 Sudeste 0 915.8 1.4 70
2019-08-02 00:00:00 21.5 14 Sudeste 21 Sudeste 0 915.4 2.3 63
2019-08-01 23:00:00 23.4 14 Sudeste 26 Sudeste 0 915.1 2.4 52
2019-08-01 22:00:00 26 19 Sudeste 29 Sudeste 0 914.4 1.9 42
2019-08-01 21:00:00 29 7 Norte 15 Sudoeste 0 913.1 0.2 27
2019-08-01 20:00:00 30.4 10 Oeste 17 Oeste 0 912.7 -0.5 26
2019-08-01 19:00:00 33 9 Sudoeste 17 Sudoeste 0 912.5 -1.1 25
2019-08-01 18:00:00 32.8 10 Oeste 23 Noroeste 0 912.9 -1.5 25
2019-08-01 17:00:00 32 8 Noroeste 21 Oeste 0 913.2 -1.1 25
2019-08-01 16:00:00 31.7 7 Noroeste 19 Oeste 0 913.6 -1.1 25
2019-08-01 15:00:00 30.5 4 Noroeste 18 Noroeste 0 914.4 -0.6 27
2019-08-01 14:00:00 29.8 6 Oeste 20 Noroeste 0 914.3 -0.8 28
2019-08-01 13:00:00 29 6 Sudoeste 21 Sudoeste 0 914.7 -0.8 32
2019-08-01 12:00:00 26.2 5 Sudoeste 14 Sudoeste 0 915 -0.4 38
2019-08-01 11:00:00 23 3 Sudoeste 17 Sur 0 915.1 0.2 46
2019-08-01 10:00:00 20.7 13 Sudeste 22 Sudeste 0 915.5 0.6 60
2019-08-01 09:00:00 16.7 14 Sudeste 21 Sudeste 0 915.4 0.4 88
2019-08-01 08:00:00 14.5 17 Este 22 Sudeste 0 914.9 -0.2 92
2019-08-01 07:00:00 14.1 14 Sudeste 20 Sudeste 0 914.9 -0.2 92
2019-08-01 06:00:00 14.2 15 Sudeste 19 Sudeste 0 915 -0.1 92
2019-08-01 05:00:00 14.5 13 Sudeste 21 Sudeste 0 915.1 -0.6 91
2019-08-01 04:00:00 14.8 15 Sudeste 28 Sudeste 0 915.1 -0.8 91
2019-08-01 03:00:00 15.2 21 Sudeste 32 Este 0 915.1 -1.4 89
2019-08-01 02:00:00 15.8 18 Sudeste 29 Sudeste 0 915.7 -1.1 86
2019-08-01 01:00:00 16.3 15 Este 27 Este 0 915.9 -0.1 83
2019-08-01 00:00:00 16.9 16 Este 30 Este 0 916.5 1 79
2019-07-31 23:00:00 17.7 21 Sudeste 32 Este 0 916.8 2 74
2019-07-31 22:00:00 19.1 22 Este 36 Sudeste 0 916 1.4 69
2019-07-31 21:00:00 21.4 22 Sudeste 33 Sudeste 0 915.5 0.6 59
2019-07-31 20:00:00 24.2 22 Sudeste 33 Sudeste 0 914.8 -0.6 50
2019-07-31 19:00:00 26.7 20 Sudeste 33 Sudeste 0 914.6 -1.3 45
2019-07-31 18:00:00 27.6 25 Sudeste 39 Sur 0 914.9 -1.3 45
2019-07-31 17:00:00 27.8 24 Sudeste 39 Sudeste 0 915.4 -1.4 42
2019-07-31 16:00:00 27.7 23 Sudeste 41 Sur 0 915.9 -1.1 41
2019-07-31 15:00:00 27.7 22 Sudeste 38 Sudeste 0 916.2 -1.2 42
2019-07-31 14:00:00 26.8 26 Sur 44 Sudeste 0 916.8 -1.1 42
2019-07-31 13:00:00 26.1 23 Sudeste 39 Sudeste 0 917 -0.3 46
2019-07-31 12:00:00 23.8 27 Sur 45 Sudeste 0 917.4 0.3 50
2019-07-31 11:00:00 22.6 26 Sudeste 41 Sur 0 917.9 1.9 56
2019-07-31 10:00:00 20.4 28 Sudeste 41 Sudeste 0 917.3 0.8 68
2019-07-31 09:00:00 17.8 28 Sudeste 42 Sudeste 0 917.1 0 83
2019-07-31 08:00:00 16.2 16 Este 30 Este 0 916 -1.3 89
2019-07-31 07:00:00 15.5 14 Este 26 Este 0 916.5 -0.6 90
2019-07-31 06:00:00 16.4 16 Sudeste 29 Este 0 917.1 0 89
2019-07-31 05:00:00 17.1 22 Sudeste 34 Sudeste 0 917.3 0.7 88
2019-07-31 04:00:00 17.8 26 Sudeste 37 Sudeste 0 917.1 0.3 86
2019-07-31 03:00:00 18 18 Sudeste 27 Sudeste 0 917.1 0.7 85
2019-07-31 02:00:00 18.1 19 Sudeste 31 Sudeste 0 916.6 0.6 85
2019-07-31 01:00:00 18.5 17 Sudeste 30 Sudeste 0 916.8 1.3 85
2019-07-31 00:00:00 19.4 19 Sudeste 33 Sudeste 0 916.4 1.6 84
2019-07-30 23:00:00 20.5 19 Sudeste 29 Sudeste 0 916 1.9 76
2019-07-30 22:00:00 21.9 21 Sudeste 36 Sudeste 0 915.5 1.8 70
2019-07-30 21:00:00 23.6 23 Sudeste 39 Sudeste 0 914.8 0.8 62
2019-07-30 20:00:00 26.4 29 Sudeste 44 Sudeste 0 914.1 0.4 53
2019-07-30 19:00:00 27.9 27 Sudeste 45 Este 0 913.7 -0.4 48
2019-07-30 18:00:00 31 31 Sudeste 49 Este 0 914 -0.7 35
2019-07-30 17:00:00 33.8 13 Sudoeste 27 Sur 0 913.7 -1.5 25
2019-07-30 16:00:00 33.1 4 Este 19 Oeste 0 914.1 -1.6 27
2019-07-30 15:00:00 31.7 6 Nordeste 23 Norte 0 914.7 -1.1 29
2019-07-30 14:00:00 30.2 2 Noroeste 20 Nordeste 0 915.2 -0.6 30
2019-07-30 13:00:00 28.5 10 Norte 23 Norte 0 915.7 -0.3 32
2019-07-30 12:00:00 27.2 7 Norte 18 Noroeste 0 915.8 0 33
2019-07-30 11:00:00 25.7 4 Noroeste 12 Noroeste 0 915.8 0.3 36
2019-07-30 10:00:00 22.2 3 Norte 18 Norte 0 916 1.1 41
2019-07-30 09:00:00 18.6 9 Norte 17 Norte 0 915.8 1.2 45
2019-07-30 08:00:00 16.6 0 Calma 12 Norte 0 915.5 1 47
2019-07-30 07:00:00 16.6 2 Norte 9 Norte 0 914.9 0.4 46
2019-07-30 06:00:00 17.3 3 Norte 15 Noroeste 0 914.6 0.1 45
2019-07-30 05:00:00 17.7 7 Norte 12 Norte 0 914.5 -0.1 44
2019-07-30 04:00:00 18.2 5 Norte 16 Noroeste 0 914.5 -0.1 43
2019-07-30 03:00:00 20.7 12 Noroeste 20 Noroeste 0 914.5 0.1 40
2019-07-30 02:00:00 20 9 Noroeste 14 Noroeste 0 914.6 0.6 50
2019-07-30 01:00:00 20.9 7 Oeste 10 Oeste 0 914.6 1.4 59
2019-07-30 00:00:00 21.9 0 Calma 4 Oeste 0 914.4 2.4 55
2019-07-29 23:00:00 23.5 0 Calma 18 Sudoeste 0 914 2.6 49
2019-07-29 22:00:00 25.6 9 Oeste 21 Norte 0 913.2 1.7 42
2019-07-29 21:00:00 27.9 15 Norte 28 Noroeste 0 912 0.1 31
2019-07-29 20:00:00 30 14 Noroeste 31 Noroeste 0 911.4 -0.5 30
2019-07-29 19:00:00 31 13 Noroeste 28 Noroeste 0 911.5 -1 30
2019-07-29 18:00:00 30 10 Noroeste 28 Noroeste 0 911.9 -0.8 30
2019-07-29 17:00:00 31.8 11 Sudoeste 27 Oeste 0 911.9 -1.3 31
2019-07-29 16:00:00 31.1 9 Oeste 24 Noroeste 0 912.5 -0.9 32
2019-07-29 15:00:00 29.4 11 Noroeste 21 Noroeste 0 912.7 -1 35
2019-07-29 14:00:00 28.9 9 Noroeste 30 Oeste 0 913.2 -0.6 36
2019-07-29 13:00:00 28.4 4 Sudoeste 17 Sur 0 913.4 -0.4 39
2019-07-29 12:00:00 26.4 7 Oeste 22 Oeste 0 913.7 0.1 43
2019-07-29 11:00:00 24.2 7 Oeste 19 Sudoeste 0 913.8 0.5 48
2019-07-29 10:00:00 22.6 4 Sudoeste 10 Sudoeste 0 913.8 0.9 56
2019-07-29 09:00:00 19.1 4 Sudeste 9 Este 0 913.6 1.1 69
2019-07-29 08:00:00 16.6 5 Sudeste 7 Sudeste 0 913.3 0.7 72
2019-07-29 07:00:00 16.4 0 Calma 12 Sudeste 0 912.9 0.6 72
2019-07-29 06:00:00 16.6 6 Sudeste 16 Sudeste 0 912.5 -0.3 69
2019-07-29 05:00:00 16.8 8 Sudeste 15 Sudeste 0 912.6 -0.4 68
2019-07-29 04:00:00 16.7 10 Sudeste 14 Sudeste 0 912.3 -0.9 67
2019-07-29 03:00:00 17.2 9 Sudeste 15 Sudeste 0 912.8 -0.4 65
2019-07-29 02:00:00 17.9 8 Sudeste 13 Sudeste 0 913 0 62
2019-07-29 01:00:00 18.7 8 Sur 17 Sudeste 0 913.2 1 59
2019-07-29 00:00:00 19.5 10 Sudeste 22 Sudeste 0 913.2 1.8 55
2019-07-28 23:00:00 20.6 2 Sudeste 20 Sur 0 913 2.4 53
2019-07-28 22:00:00 22.1 12 Sur 24 Sur 0 912.2 1.7 50
2019-07-28 21:00:00 25.2 5 Sur 18 Sur 0 911.4 0.8 39
2019-07-28 20:00:00 27.9 5 Sudeste 16 Noroeste 0 910.6 -0.6 34
2019-07-28 19:00:00 28.6 2 Norte 20 Oeste 0 910.5 -1.1 34
2019-07-28 18:00:00 28.7 8 Noroeste 21 Noroeste 0 910.6 -1.4 34
2019-07-28 17:00:00 27.5 7 Norte 24 Noroeste 0 911.2 -1.3 36
2019-07-28 16:00:00 28.1 5 Oeste 24 Oeste 0 911.6 -1.2 35
2019-07-28 15:00:00 25.6 7 Noroeste 26 Noroeste 0 912 -1.2 38
2019-07-28 14:00:00 24.1 11 Noroeste 29 Noroeste 0 912.5 -0.7 41
2019-07-28 13:00:00 22.6 12 Norte 27 Noroeste 0 912.8 -0.4 44
2019-07-28 12:00:00 21.1 10 Norte 21 Noroeste 0 913.2 0.4 49
2019-07-28 11:00:00 20 9 Oeste 22 Oeste 0 913.2 1 56
2019-07-28 10:00:00 17.4 12 Noroeste 24 Noroeste 0 913.2 1.1 65
2019-07-28 09:00:00 15.8 13 Noroeste 21 Noroeste 0 912.8 1.5 72
2019-07-28 08:00:00 13.9 11 Norte 19 Noroeste 0 912.2 0.7 81
2019-07-28 07:00:00 14.2 11 Norte 22 Noroeste 0 912.1 0.7 79
2019-07-28 06:00:00 14.7 17 Noroeste 24 Noroeste 0 911.3 -0.3 79
2019-07-28 05:00:00 15.1 10 Noroeste 19 Noroeste 0 911.5 -0.1 76
2019-07-28 04:00:00 15.9 13 Noroeste 26 Noroeste 0 911.4 -0.5 72
2019-07-28 03:00:00 16 12 Noroeste 24 Noroeste 0 911.6 0.2 71
2019-07-28 02:00:00 16.9 16 Noroeste 28 Noroeste 0 911.6 0.3 66
2019-07-28 01:00:00 17.6 14 Noroeste 25 Noroeste 0 911.9 1.8 63
2019-07-28 00:00:00 18.3 17 Noroeste 32 Noroeste 0 911.4 2.3 60
2019-07-27 23:00:00 18.9 19 Noroeste 36 Noroeste 0 911.3 2.9 59
2019-07-26 12:00:00 26.8 10 Noroeste 30 Norte 0 913.5 -0.6 43
2019-07-26 11:00:00 24.6 17 Noroeste 32 Noroeste 0 913.9 0 47
2019-07-26 10:00:00 22.2 17 Noroeste 29 Noroeste 0 914.1 0.2 49
2019-07-26 09:00:00 21.9 15 Noroeste 22 Noroeste 0 914.1 0.4 48
2019-07-26 08:00:00 21 8 Noroeste 17 Noroeste 0 913.9 -0.2 50
2019-07-26 07:00:00 18.8 0 Calma 9 Este 0 913.9 -0.4 52
2019-07-26 06:00:00 18.7 6 Este 11 Sudeste 0 913.7 -1.2 52
2019-07-26 05:00:00 18.7 7 Sudeste 14 Sudeste 0 914.1 -1.2 53
2019-07-26 04:00:00 18.6 10 Sudeste 17 Este 0 914.3 -1.2 54
2019-07-26 03:00:00 19.4 11 Sudeste 18 Sudeste 0 914.9 -0.8 53
2019-07-26 02:00:00 20.7 11 Sudeste 19 Sudeste 0 915.3 -0.3 48
2019-07-26 01:00:00 21.5 12 Sudeste 26 Sudeste 0 915.5 0.6 43
2019-07-26 00:00:00 22.4 16 Sur 25 Sur 0 915.7 1.3 42
2019-07-25 23:00:00 24 18 Sur 31 Sur 0 915.6 1.6 37
2019-07-25 22:00:00 25.3 16 Sur 23 Sur 0 914.9 1 33
2019-07-25 21:00:00 27.2 18 Sur 35 Sur 0 914.4 0.2 29
2019-07-25 20:00:00 29.9 24 Sur 39 Sudeste 0 914 -0.8 28
2019-07-25 19:00:00 31.3 24 Sur 40 Sur 0 913.9 -1.3 28
2019-07-25 18:00:00 32.5 23 Sur 39 Sudeste 0 914.2 -1.4 27
2019-07-25 17:00:00 33.2 20 Sur 41 Sur 0 914.8 -1.2 26
2019-07-25 16:00:00 33.5 21 Sur 41 Sur 0 915.2 -1.3 26
2019-07-25 15:00:00 33.6 20 Sur 36 Sudoeste 0 915.6 -1.1 27
2019-07-25 14:00:00 32.3 21 Sur 35 Sudoeste 0 916 -0.9 29
2019-07-25 13:00:00 31.3 21 Sur 31 Sur 0 916.5 -0.6 30
2019-07-25 12:00:00 30.8 14 Sudoeste 23 Sudoeste 0 916.7 -0.5 32
2019-07-25 11:00:00 29 12 Sur 19 Sur 0 916.9 -0.2 36
2019-07-25 10:00:00 25.9 12 Sur 17 Sur 0 917.1 0.3 39
2019-07-25 09:00:00 21.9 5 Sudeste 13 Sudeste 0 917.2 0.6 46
2019-07-25 08:00:00 19.2 8 Sudeste 19 Sudeste 0 917.1 0.3 48
2019-07-25 07:00:00 18.4 12 Este 20 Sudeste 0 916.8 -0.2 47
2019-07-25 06:00:00 17.9 12 Sudeste 19 Este 0 916.6 -0.5 47
2019-07-25 05:00:00 18 12 Sudeste 21 Sudeste 0 916.8 -0.6 46
2019-07-25 04:00:00 18.8 18 Sudeste 22 Sudeste 0 917 -0.4 44
2019-07-25 03:00:00 19.6 16 Sudeste 24 Sur 0 917.1 -0.2 41
2019-07-25 02:00:00 21.1 17 Sudeste 24 Sur 0 917.4 0.2 40
2019-07-25 01:00:00 20.9 17 Sudeste 25 Sudeste 0 917.4 0.8 38
2019-07-25 00:00:00 21.7 19 Sudeste 24 Sudeste 0 917.3 1.1 37
2019-07-24 23:00:00 23.6 15 Sudeste 29 Sudeste 0 917.2 1.3 35
2019-07-24 22:00:00 25.4 22 Sur 32 Sur 0 916.6 0.8 32
2019-07-24 21:00:00 27.6 26 Sur 37 Sur 0 916.2 0.1 29
2019-07-24 20:00:00 29.7 27 Sur 41 Sur 0 915.9 -0.7 27
2019-07-24 19:00:00 31.4 31 Sur 44 Sur 0 915.8 -1 26
2019-07-24 18:00:00 32.9 26 Sur 42 Sur 0 916.1 -0.9 25
2019-07-24 17:00:00 33.5 25 Sur 42 Sur 0 916.6 -0.6 25
2019-07-24 16:00:00 33.5 26 Sur 42 Sur 0 916.8 -0.8 25
2019-07-24 15:00:00 32.9 26 Sur 43 Sur 0 917 -1.1 27
2019-07-24 14:00:00 33.7 18 Sur 42 Sudeste 0 917.2 -1.1 29
2019-07-24 13:00:00 33 18 Sudeste 33 Sudeste 0 917.6 -0.7 30
2019-07-24 12:00:00 31.1 17 Sudeste 30 Sudeste 0 918.1 -0.2 32
2019-07-24 11:00:00 29.7 15 Sudeste 27 Sudeste 0 918.3 0.1 35
2019-07-24 10:00:00 27.5 10 Sudeste 17 Sudeste 0 918.3 0.2 36
2019-07-24 09:00:00 22.5 11 Sudeste 15 Este 0 918.3 0.1 41
2019-07-24 08:00:00 19.3 13 Este 18 Este 0 918.2 0.1 45
2019-07-24 07:00:00 18.8 13 Este 16 Sudeste 0 918.1 -0.1 43
2019-07-24 06:00:00 19.3 5 Sudeste 8 Sudeste 0 918.2 -0.4 42
2019-07-24 05:00:00 19.4 4 Este 18 Este 0 918.1 -1 42
2019-07-24 04:00:00 19.7 14 Sudeste 17 Sudeste 0 918.2 -0.9 39
2019-07-24 03:00:00 20.2 13 Este 17 Este 0 918.6 -0.4 38
2019-07-24 02:00:00 20.6 10 Este 18 Sudeste 0 919.1 0.4 38
2019-07-24 01:00:00 22.3 8 Sudeste 13 Sur 0 919.1 0.8 35
2019-07-24 00:00:00 22.9 7 Sur 14 Sur 0 919 1.2 33
2019-07-23 23:00:00 23.9 8 Sudeste 18 Sur 0 918.7 1.4 31
2019-07-23 22:00:00 25.1 9 Sur 26 Sur 0 918.3 1 28
2019-07-23 21:00:00 27.3 19 Sur 39 Sur 0 917.8 -0.2 26
2019-07-23 20:00:00 29.7 31 Sur 43 Sudeste 0 917.3 -0.7 24
2019-07-23 19:00:00 31.1 33 Sur 46 Sudeste 0 917.3 -0.9 23
2019-07-23 18:00:00 31.2 22 Sur 37 Sur 0 918 -0.7 24
2019-07-23 17:00:00 33.8 23 Sur 44 Sudeste 0 918 -0.7 23
2019-07-23 16:00:00 33.9 26 Sur 51 Sur 0 918.2 -1 24
2019-07-23 15:00:00 33 28 Sur 43 Sur 0 918.7 -0.7 25
2019-07-23 14:00:00 32.6 26 Sudeste 40 Sur 0 918.7 -1.4 28
2019-07-23 13:00:00 30.8 28 Sur 38 Sur 0 919.2 -1 30
2019-07-23 12:00:00 29.2 23 Sudeste 36 Sur 0 919.4 -1 34
2019-07-23 11:00:00 25.3 18 Sur 26 Sudeste 0 920.1 -0.3 42
2019-07-23 10:00:00 24.5 9 Sudeste -- -- -- 920.2 0.2 46
2019-07-23 09:00:00 20.4 8 Este 12 Este 0 920.4 0.6 58
2019-07-23 08:00:00 17.5 6 Norte 16 Este 0 920.4 0.4 66
2019-07-23 07:00:00 16.1 12 Este 15 Sudeste 0 920 -0.3 68
2019-07-23 06:00:00 16.9 11 Sudeste 18 Sudeste 0 919.8 -0.9 67
2019-07-23 05:00:00 17.3 15 Sudeste 20 Sudeste 0 920 -1 67
2019-07-23 04:00:00 17.5 14 Sudeste 19 Sudeste 0 920.3 -1.1 67
2019-07-23 03:00:00 18 13 Sudeste 17 Sudeste 0 920.7 -0.5 66
2019-07-23 02:00:00 18.6 13 Sudeste 15 Sudeste 0 921 -0.1 65
2019-07-23 01:00:00 19.6 9 Sudeste 16 Sudeste 0 921.4 0.7 62
2019-07-23 00:00:00 20.7 12 Sudeste 22 Sudeste 0 921.2 0.8 59
2019-07-22 23:00:00 22.5 15 Sudeste 26 Sudeste 0 921.1 1.2 52
2019-07-22 22:00:00 24.8 15 Sudeste 35 Sudeste 0 920.7 0.9 25
2019-07-22 21:00:00 27.5 28 Sur 44 Sur 0 920.4 0.3 20
2019-07-22 20:00:00 29.3 31 Sur 51 Sudeste 0 919.9 -0.9 19
2019-07-22 19:00:00 31.3 32 Sudeste 50 Sudeste 0 919.8 -1 19
2019-07-22 18:00:00 32.1 34 Sudeste 51 Sudeste 0 920.1 -1.1 19
2019-07-22 17:00:00 32.7 32 Sur 47 Sudeste 0 920.8 -0.9 19
2019-07-22 16:00:00 32.5 30 Sur 46 Sudeste 0 920.8 -1.2 22
2019-07-22 15:00:00 32 24 Sur 45 Sur 0 921.2 -1 26
2019-07-22 14:00:00 30.7 22 Sur 40 Sur 0 921.7 -0.6 33
2019-07-22 13:00:00 29.6 26 Sur 40 Sur 0 922 -0.3 32
2019-07-22 12:00:00 27.9 23 Sudeste 36 Sudeste 0 922.2 -0.3 38
2019-07-22 11:00:00 26.2 22 Sudeste 35 Sudeste 0 922.3 0.1 41
2019-07-22 10:00:00 23.3 21 Sudeste 33 Sudeste 0 922.3 0.5 52
2019-07-22 09:00:00 20 14 Sudeste 19 Sudeste 0 922.5 0.6 64
2019-07-22 08:00:00 17.2 13 Sudeste 23 Sudeste 0 922.2 0.4 70
2019-07-22 07:00:00 16.9 15 Este 22 Sudeste 0 921.8 0 70
2019-07-22 06:00:00 17.1 13 Este 16 Este 0 921.9 -0.4 72
2019-07-22 05:00:00 16.9 8 Este 17 Sudeste 0 921.8 -0.7 74
2019-07-22 04:00:00 17.4 15 Sudeste 21 Sudeste 0 921.8 -0.8 74
2019-07-22 03:00:00 18.3 9 Sudeste 25 Sudeste 0 922.3 -0.4 71
2019-07-22 02:00:00 18.8 16 Sudeste 24 Sudeste 0 922.5 0.4 66
2019-07-22 01:00:00 18.9 16 Sudeste 24 Sudeste 0 922.6 1.4 63
2019-07-22 00:00:00 20 21 Sudeste 32 Sudeste 0 922.7 2.4 57
2019-07-21 23:00:00 21.5 22 Sudeste 33 Sudeste 0 922.1 2.4 54
2019-07-21 22:00:00 23.3 22 Sudeste 33 Sudeste 0 921.2 1.6 46
2019-07-21 21:00:00 25.7 24 Sudeste 35 Sudeste 0 920.3 0.8 39
2019-07-21 20:00:00 28.4 23 Sudeste 35 Sudeste 0 919.7 0 37
2019-07-21 19:00:00 31.2 23 Sudeste 40 Sudeste 0 919.6 -0.5 35
2019-07-21 18:00:00 32.2 21 Sudeste 38 Sudeste 0 919.5 -0.8 32
2019-07-21 17:00:00 32.7 19 Sudeste 37 Sur 0 919.7 -0.8 33
2019-07-21 16:00:00 32.1 20 Sur 39 Sur 0 920.1 -0.6 32
2019-07-21 15:00:00 32.9 18 Sudeste 38 Sudeste 0 920.3 -0.4 32
2019-07-21 14:00:00 31.6 21 Sudeste 36 Sudeste 0 920.5 0 32
2019-07-21 13:00:00 30.5 20 Sudeste 40 Sudeste 0 920.7 0.2 32
2019-07-21 12:00:00 28.3 21 Sudeste 33 Sudeste 0 920.7 0.4 36
2019-07-21 11:00:00 27.3 14 Sudeste 24 Sudeste 0 920.5 0.8 42
2019-07-21 10:00:00 24.9 14 Sudeste 23 Sudeste 0 920.5 1 49
2019-07-21 09:00:00 20.8 14 Sudeste 24 Sudeste 0 920.3 1.1 63
2019-07-21 08:00:00 18 19 Sudeste 24 Sudeste 0 919.7 0.4 73
2019-07-21 07:00:00 16.9 16 Sudeste 21 Sudeste 0 919.5 0.3 79
2019-07-21 06:00:00 16.9 12 Sudeste 15 Sudeste 0 919.2 -0.4 82
2019-07-21 05:00:00 17.4 9 Sudeste 23 Sudeste 0 919.3 -0.3 79
2019-07-21 04:00:00 18.1 14 Sudeste 16 Sudeste 0 919.2 -0.5 76
2019-07-21 03:00:00 18.7 8 Sudeste 21 Sudeste 0 919.6 0 72
2019-07-21 02:00:00 19.2 15 Sudeste 21 Sudeste 0 919.6 0.4 59
2019-07-21 01:00:00 20.4 16 Sudeste 24 Sudeste 0 919.7 1.7 52
2019-07-21 00:00:00 21.6 18 Sudeste 30 Sudeste 0 919.6 2.4 46
2019-07-20 23:00:00 23.1 20 Sur 28 Sudeste 0 919.2 2.8 51
2019-07-20 22:00:00 24.8 22 Sudeste 34 Sudeste 0 918 2.2 45
2019-07-20 21:00:00 26.6 23 Sudeste 38 Sudeste 0 917.2 1.3 36
2019-07-20 20:00:00 29.3 25 Sudeste 38 Sudeste 0 916.4 0.5 34
2019-07-20 19:00:00 31.8 19 Sur 35 Sudeste 0 915.8 -0.3 32
2019-07-20 18:00:00 33.5 17 Sur 35 Sur 0 915.9 -0.5 29
2019-07-20 17:00:00 34.5 19 Sur 33 Sur 0 915.9 -0.8 28
2019-07-20 16:00:00 34.8 13 Sur 29 Sudeste 0 916.1 -0.8 27
2019-07-20 15:00:00 34.6 14 Sudeste 26 Sur 0 916.4 -0.6 27
2019-07-20 14:00:00 33.8 13 Sudeste 28 Sudeste 0 916.7 -0.4 29
2019-07-20 13:00:00 31.9 11 Sur 22 Sudeste 0 916.9 -0.5 29
2019-07-20 12:00:00 30.1 8 Sudeste 21 Sudeste 0 917 -0.4 32
2019-07-20 11:00:00 27.1 2 Sudeste 8 Sudeste 0 917.1 0.2 38
2019-07-20 10:00:00 23.8 0 Calma 6 Sudeste 0 917.4 1 44
2019-07-20 09:00:00 19.9 0 Calma 7 Norte 0 917.4 1.2 57
2019-07-20 08:00:00 17.3 4 Este 13 Este 0 916.9 0.9 63
2019-07-20 07:00:00 16.1 12 Sudeste 19 Sudeste 0 916.4 0.5 70
2019-07-20 06:00:00 16.4 15 Sudeste 22 Sudeste 0 916.2 0 70
2019-07-20 05:00:00 16.9 16 Sudeste 22 Sudeste 0 916 -0.3 69
2019-07-20 04:00:00 17.9 17 Sudeste 23 Sur 0 915.9 -0.6 68
2019-07-20 03:00:00 18.3 18 Sur 22 Sur 0 916.2 -0.1 69
2019-07-20 02:00:00 18.8 15 Sudeste 22 Sudeste 0 916.3 0.2 71
2019-07-20 01:00:00 19.5 16 Sudeste 21 Sudeste 0 916.5 0.8 63
2019-07-20 00:00:00 20.3 15 Sudeste 21 Sudeste 0 916.3 1.2 47
2019-07-19 23:00:00 21.9 15 Sudeste 50 Sudeste 0 916.1 1.4 41
2019-07-19 22:00:00 24 16 Sur 27 Sur 0 915.7 1 36
2019-07-19 21:00:00 26.4 19 Sur 36 Sur 0 915.1 -0.1 29
2019-07-19 20:00:00 28.8 26 Sur 38 Sur 0 914.7 -0.7 26
2019-07-19 19:00:00 30.8 22 Sur 37 Sur 0 914.7 -1.2 25
2019-07-19 18:00:00 31.8 19 Sur 36 Sur 0 915.2 -1.1 26
2019-07-19 17:00:00 32.1 19 Sur 38 Sur 0 915.4 -1.5 25
2019-07-19 16:00:00 31.8 24 Sur 38 Sur 0 915.9 -1.4 25
2019-07-19 15:00:00 31.7 22 Sur 37 Sur 0 916.3 -1.3 25
2019-07-19 14:00:00 30.9 19 Sur 31 Sudeste 0 916.9 -0.7 27
2019-07-19 13:00:00 29.3 18 Sur 35 Sur 0 917.3 -0.5 31
2019-07-19 12:00:00 27.3 22 Sur 33 Sur 0 917.6 0 34
2019-07-19 11:00:00 25.5 22 Sur 31 Sur 0 917.6 0.6 37
2019-07-19 10:00:00 23.5 18 Sur 27 Sur 0 917.8 1.2 42
2019-07-19 09:00:00 20.2 12 Sudeste 21 Este 0 917.6 1.1 53
2019-07-19 08:00:00 17.5 6 Este 19 Este 0 917 0.5 56
2019-07-19 07:00:00 16.2 12 Este 22 Sudeste 0 916.6 0.1 62
2019-07-19 06:00:00 16.1 17 Este 22 Este 0 916.5 -0.3 61
2019-07-19 05:00:00 16.6 17 Este 25 Este 0 916.5 -0.6 58
2019-07-19 04:00:00 17.1 17 Sudeste 26 Este 0 916.5 -0.5 56
2019-07-19 03:00:00 17.3 18 Sudeste 26 Sudeste 0 916.8 -0.1 55
2019-07-19 02:00:00 18.3 14 Sudeste 21 Sudeste 0 917.1 0.4 50
2019-07-19 01:00:00 19.3 13 Sudeste 24 Sur 0 917 1.1 49
2019-07-19 00:00:00 20.9 13 Sur 24 Sur 0 916.9 1.8 46